Other Surface Observations
Issued by NWS Great Falls, MT

Home | Current Version | Previous Version | Text Only | Print | Product List | Glossary On
Versions: 1 2 3 4 5 6 7 8 9 10 11 12 13 14 15 16 17 18 19 20 21 22 23 24 25 26 27 28 29 30 31 32 33 34 35 36 37 38 39 40 41 42 43 44 45 46 47 48 49 50
000
SXUS55 KTFX 301144
OSOTFX
AREA AWOS OBSERVATIONS
NATIONAL WEATHER SERVICE GREAT FALLS MT
0544 AM MDT SAT APR 30 2016

METAR KPWD 301145Z AUTO 05007KT 10SM 03/M03 A3024 RMK PLENTYWOOD
METAR KPO1 301145Z AUTO 01006KT 10SM 03/M02 A3022 RMK POPLAR
METAR K1S3 301145Z AUTO 09003KT 10SM 06/04 A3011 RMK FORSYTH
METAR KS71 301145Z AUTO 00000KT 10SM 03/03 A3016 RMK CHINOOK
METAR K38S 301145Z AUTO 03003KT 10SM 04/02 A3009 RMK DEER LODGE
METAR K3U3 301145Z AUTO 36003KT 03/02 A3007 RMK ANACONDA
METAR K6S5 301145Z AUTO 29003KT 10SM 05/03 A3010 RMK HAMILTON
METAR KS59 301145Z AUTO 00000KT 10SM 03/02 A3014 RMK LIBBY
METAR K88M 301145Z AUTO 12003KT 10SM 04/03 A3015 RMK EUREKA



USA.gov is the U.S. government's official web portal to all federal, state and local government web resources and services.